Time;durP1;ratioP1;P1;durP2;ratioP2;P2;SDS_P1;SDS_P2;PMS_P1;PMS_P2;Temp;Humidity;BMP_temperature;BMP_pressure;BME280_temperature;BME280_humidity;BME280_pressure;Samples;Min_cycle;Max_cycle;Signal;HPM_P1;HPM_P2
2022/11/03 00:02:19;;;;;;;;;18.00;17.50;;;;;11.70;98.93;100309.28;6268906;20;2831556;-66
2022/11/03 00:04:48;;;;;;;;;20.50;19.00;;;;;11.43;100.00;100311.72;6269704;20;2838813;-66
2022/11/03 00:07:22;;;;;;;;;26.33;21.33;;;;;11.29;100.00;100314.25;6270330;20;2853569;-66
2022/11/03 00:09:50;;;;;;;;;25.33;22.67;;;;;11.23;100.00;100314.59;6302623;20;3572280;-66
2022/11/03 00:12:19;;;;;;;;;21.00;19.00;;;;;11.11;100.00;100316.13;6297193;20;2836959;-66
2022/11/03 00:14:48;;;;;;;;;24.50;24.50;;;;;11.06;100.00;100323.56;6268174;20;2848271;-66
2022/11/03 00:17:16;;;;;;;;;23.00;20.00;;;;;11.09;100.00;100313.53;6270573;20;2836791;-65
2022/11/03 00:19:45;;;;;;;;;25.00;22.00;;;;;11.02;100.00;100320.19;6272535;20;2847256;-65
2022/11/03 00:22:14;;;;;;;;;26.00;23.00;;;;;11.11;100.00;100314.34;6270672;20;2848188;-66
2022/11/03 00:24:42;;;;;;;;;30.00;28.67;;;;;11.15;100.00;100321.25;6274613;20;3603410;-66
2022/11/03 00:27:11;;;;;;;;;25.50;23.00;;;;;11.06;100.00;100332.50;6269990;20;2835710;-66
2022/11/03 00:29:39;;;;;;;;;20.00;19.00;;;;;10.96;100.00;100326.75;6268028;20;2496159;-65
2022/11/03 00:32:08;;;;;;;;;28.00;20.50;;;;;10.94;100.00;100327.78;6270931;20;2851369;-65
2022/11/03 00:34:36;;;;;;;;;18.50;18.50;;;;;10.95;100.00;100325.03;6264699;20;2501022;-67
2022/11/03 00:37:04;;;;;;;;;26.00;18.00;;;;;10.98;100.00;100310.56;6268349;20;2851322;-65
2022/11/03 00:39:36;;;;;;;;;21.33;18.33;;;;;10.97;100.00;100314.19;6263883;20;3571165;-65
2022/11/03 00:42:05;;;;;;;;;24.00;19.50;;;;;11.02;100.00;100330.06;6268733;20;2839893;-65
2022/11/03 00:44:35;;;;;;;;;19.00;17.00;;;;;11.01;100.00;100323.81;6267070;20;2839910;-65
2022/11/03 00:47:03;;;;;;;;;18.00;18.00;;;;;10.88;100.00;100322.75;6267040;20;2500399;-65
2022/11/03 00:49:31;;;;;;;;;19.00;18.00;;;;;10.82;100.00;100328.41;6268883;20;2835175;-65
2022/11/03 00:52:00;;;;;;;;;22.50;20.00;;;;;10.69;100.00;100329.06;6267685;20;2842094;-65
2022/11/03 00:54:28;;;;;;;;;22.00;20.00;;;;;10.72;100.00;100326.22;6267130;20;2483654;-65
2022/11/03 00:56:56;;;;;;;;;24.00;19.00;;;;;10.76;100.00;100329.59;6270796;20;2491944;-65
2022/11/03 00:59:43;;;;;;;;;18.00;18.00;;;;;10.51;100.00;100333.56;6267478;20;2498277;-65
2022/11/03 01:02:13;;;;;;;;;21.00;19.00;;;;;10.50;100.00;100329.13;6268876;20;2842084;-65
2022/11/03 01:07:30;;;;;;;;;20.33;16.00;;;;;10.36;100.00;100317.38;6301221;20;3556587;-65
2022/11/03 01:09:58;;;;;;;;;21.00;18.00;;;;;10.43;100.00;100302.69;6267822;20;3562747;-67
2022/11/03 01:12:27;;;;;;;;;16.33;16.33;;;;;10.55;100.00;100304.72;6264807;20;3548175;-65
2022/11/03 01:14:55;;;;;;;;;17.00;16.50;;;;;10.54;100.00;100308.38;6267343;20;2833606;-65
2022/11/03 01:17:27;;;;;;;;;19.00;17.00;;;;;10.54;100.00;100308.38;6267344;20;2494021;-65
2022/11/03 01:19:55;;;;;;;;;24.00;18.00;;;;;10.38;100.00;100312.81;6265988;20;2484182;-65
2022/11/03 01:22:24;;;;;;;;;20.67;19.00;;;;;10.23;100.00;100319.75;6267775;20;3562845;-65
2022/11/03 01:24:53;;;;;;;;;19.67;18.67;;;;;10.23;100.00;100315.25;6267221;20;3566969;-65
2022/11/03 01:27:25;;;;;;;;;17.33;16.00;;;;;10.04;100.00;100315.31;6270562;20;3552475;-65
2022/11/03 01:29:53;;;;;;;;;18.67;14.67;;;;;9.95;100.00;100310.38;6271464;20;3534655;-64
2022/11/03 01:32:22;;;;;;;;;12.67;10.33;;;;;9.89;100.00;100305.31;6299520;20;3507620;-65
2022/11/03 01:34:50;;;;;;;;;14.00;14.00;;;;;9.80;100.00;100314.69;6298522;20;2804498;-65
2022/11/03 01:37:18;;;;;;;;;16.33;15.67;;;;;9.82;100.00;100317.28;6269092;20;3543993;-65
2022/11/03 01:39:46;;;;;;;;;15.00;12.00;;;;;9.87;100.00;100318.84;6301199;20;2800381;-65
2022/11/03 01:42:16;;;;;;;;;13.00;12.80;;;;;10.02;100.00;100321.69;6292404;20;2797201;-64
2022/11/03 01:44:48;;;;;;;;;13.50;9.00;;;;;10.08;100.00;100310.66;6270460;20;2769193;-65
2022/11/03 01:47:32;;;;;;;;;11.33;11.00;;;;;9.96;100.00;100316.63;6267953;20;2792020;-65
2022/11/03 01:50:16;;;;;;;;;12.00;10.00;;;;;10.23;100.00;100326.00;6301608;20;2788856;-65
2022/11/03 01:52:55;;;;;;;;;10.50;10.50;;;;;10.31;100.00;100314.91;6270481;20;2784645;-65
2022/11/03 01:55:34;;;;;;;;;12.00;10.40;;;;;10.28;99.75;100315.94;6290717;20;2789892;-66
2022/11/03 01:58:33;;;;;;;;;6.00;6.00;;;;;10.37;98.87;100324.47;6271242;20;2745067;-64
2022/11/03 02:01:02;;;;;;;;;12.00;8.00;;;;;10.18;99.32;100330.72;6264722;20;2777399;-64
2022/11/03 02:03:41;;;;;;;;;11.00;8.00;;;;;10.14;100.00;100320.22;6267363;20;2752417;-65
2022/11/03 02:06:14;;;;;;;;;8.00;7.86;;;;;9.96;100.00;100327.38;6313255;20;3455468;-65
2022/11/03 02:08:53;;;;;;;;;7.00;7.00;;;;;10.05;100.00;100326.91;6301282;20;2735739;-65
2022/11/03 02:14:15;;;;;;;;;12.40;7.80;;;;;9.50;100.00;100308.97;6321374;20;2764984;-66
2022/11/03 02:16:55;;;;;;;;;7.50;7.50;;;;;9.35;100.00;100326.66;6267540;20;2749327;-65
2022/11/03 02:19:57;;;;;;;;;12.50;12.00;;;;;9.28;100.00;100327.00;6264936;20;2791930;-65
2022/11/03 02:22:54;;;;;;;;;10.57;10.43;;;;;9.05;100.00;100328.91;6313653;20;1806536;-66
2022/11/03 02:25:33;;;;;;;;;11.00;10.00;;;;;8.98;100.00;100324.78;6297517;20;2793055;-65
2022/11/03 02:28:04;;;;;;;;;11.50;9.00;;;;;8.95;100.00;100325.78;6271853;20;2773370;-65
2022/11/03 02:31:13;;;;;;;;;12.00;12.00;;;;;8.88;100.00;100323.44;6269454;20;2791946;-65
2022/11/03 02:34:05;;;;;;;;;9.50;9.50;;;;;8.96;100.00;100313.25;6268655;20;2761935;-66
2022/11/03 02:36:46;;;;;;;;;11.00;11.00;;;;;9.21;100.00;100318.38;6297424;20;2784763;-65
2022/11/03 02:39:29;;;;;;;;;9.00;9.00;;;;;9.54;100.00;100321.31;6276948;20;2742981;-65
2022/11/03 02:42:00;;;;;;;;;12.00;8.50;;;;;9.67;100.00;100313.56;6273815;20;2770194;-65
2022/11/03 02:44:33;;;;;;;;;10.33;8.17;;;;;9.75;100.00;100318.53;6319677;20;1804593;-65
2022/11/03 02:47:11;;;;;;;;;11.00;8.00;;;;;9.59;100.00;100323.78;6328469;20;2750299;-65
2022/11/03 02:49:49;;;;;;;;;12.00;10.50;;;;;9.49;100.00;100326.00;6303069;20;2781639;-65
2022/11/03 02:52:39;;;;;;;;;12.00;9.00;;;;;9.37;100.00;100329.25;6272651;20;2777692;-66
2022/11/03 02:56:00;;;;;;;;;11.00;8.80;;;;;9.30;100.00;100328.69;6297906;20;2767094;-65
2022/11/03 02:59:00;;;;;;;;;5.60;5.60;;;;;9.44;100.00;100328.91;6296564;20;2737828;-65
2022/11/03 03:01:46;;;;;;;;;12.50;11.00;;;;;9.38;100.00;100326.50;6302957;20;2790059;-65
2022/11/03 03:04:42;;;;;;;;;7.40;7.20;;;;;9.36;100.00;100338.25;6296574;20;2739904;-65
2022/11/03 03:07:20;;;;;;;;;13.00;11.50;;;;;9.36;100.00;100328.38;6301748;20;2790947;-65
2022/11/03 03:10:11;;;;;;;;;11.00;8.25;;;;;9.32;100.00;100326.81;6290841;20;1799370;-65
2022/11/03 03:12:47;;;;;;;;;12.00;9.00;;;;;9.56;100.00;100329.28;6301000;20;2760727;-66
2022/11/03 03:15:17;;;;;;;;;10.50;7.00;;;;;9.51;100.00;100331.31;6271631;20;2762815;-65
2022/11/03 03:18:14;;;;;;;;;12.00;8.00;;;;;9.41;100.00;100323.69;6297682;20;2756582;-65
2022/11/03 03:20:56;;;;;;;;;10.20;7.80;;;;;9.39;100.00;100328.22;6295951;20;2763017;-64
2022/11/03 03:23:35;;;;;;;;;11.67;10.00;;;;;9.14;100.00;100324.97;6299869;20;2759653;-65
2022/11/03 03:26:40;;;;;;;;;13.00;10.33;;;;;8.80;100.00;100329.16;6301002;20;2798157;-65
2022/11/03 03:29:42;;;;;;;;;13.00;12.00;;;;;8.50;100.00;100342.91;6300308;20;2786870;-65
2022/11/03 03:32:22;;;;;;;;;8.00;7.00;;;;;8.36;100.00;100334.56;6272310;20;2741091;-65
2022/11/03 03:34:54;;;;;;;;;13.00;10.33;;;;;8.16;100.00;100340.72;6269302;20;2790027;-65
2022/11/03 03:37:26;;;;;;;;;14.40;10.20;;;;;8.27;100.00;100340.31;6322492;20;2789834;-65
2022/11/03 03:40:02;;;;;;;;;13.00;12.00;;;;;8.41;100.00;100329.06;6266777;20;2792982;-64
2022/11/03 03:42:34;;;;;;;;;16.40;11.20;;;;;8.58;100.00;100337.22;6293311;20;2796266;-66
2022/11/03 03:45:05;;;;;;;;;11.00;9.00;;;;;8.38;100.00;100338.06;6270711;20;2766989;-65
2022/11/03 03:47:34;;;;;;;;;12.00;10.50;;;;;8.32;100.00;100336.50;6271640;20;2779626;-67
2022/11/03 03:50:04;;;;;;;;;14.67;11.00;;;;;8.03;100.00;100336.81;6271066;20;2793257;-68
2022/11/03 03:52:35;;;;;;;;;17.20;12.60;;;;;7.93;100.00;100331.00;6322750;20;2802572;-65
2022/11/03 03:55:17;;;;;;;;;12.33;11.67;;;;;7.96;100.00;100336.22;6270077;20;2795120;-65
2022/11/03 03:57:45;;;;;;;;;10.00;9.00;;;;;7.84;100.00;100336.69;6311710;20;2752505;-66
2022/11/03 04:00:16;;;;;;;;;17.33;11.00;;;;;7.75;100.00;100347.75;6271169;20;3535683;-65
2022/11/03 04:02:45;;;;;;;;;15.00;12.67;;;;;7.91;100.00;100347.06;6299283;20;3536859;-65
2022/11/03 04:05:13;;;;;;;;;16.50;13.00;;;;;7.66;100.00;100352.53;6305322;20;2800282;-65
2022/11/03 04:07:45;;;;;;;;;10.60;10.60;;;;;7.70;100.00;100356.81;6294465;20;2785716;-67
2022/11/03 04:10:17;;;;;;;;;13.50;11.00;;;;;7.68;100.00;100361.34;6272153;20;2786715;-65
2022/11/03 04:24:08;;;;;;;;;21.50;16.50;;;;;7.81;100.00;100366.22;6272115;20;2815908;-68
2022/11/03 04:26:35;;;;;;;;;24.00;20.50;;;;;7.58;100.00;100362.66;6266098;20;2485738;-66
2022/11/03 04:29:08;;;;;;;;;15.50;15.50;;;;;7.40;100.00;100358.88;6270342;20;2820690;-66
2022/11/03 04:31:36;;;;;;;;;19.50;19.00;;;;;7.59;100.00;100366.19;6267464;20;2500286;-66
2022/11/03 04:34:11;;;;;;;;;19.00;17.00;;;;;7.67;100.00;100364.97;6270139;20;2500298;-65
2022/11/03 04:36:39;;;;;;;;;24.00;18.67;;;;;7.98;100.00;100338.81;6264719;20;3572197;-66
2022/11/03 04:39:19;;;;;;;;;23.50;21.50;;;;;8.12;100.00;100356.03;6267118;20;2830491;-65
2022/11/03 04:41:48;;;;;;;;;28.50;24.50;;;;;8.25;100.00;100360.91;6271738;20;2851322;-66
2022/11/03 04:44:16;;;;;;;;;26.00;23.00;;;;;8.30;100.00;100357.09;6269515;20;2724353;-65
2022/11/03 04:46:45;;;;;;;;;35.00;26.50;;;;;8.27;100.00;100356.38;6298248;20;2869035;-68
2022/11/03 04:49:22;;;;;;;;;33.00;30.50;;;;;8.29;100.00;100350.03;6270069;20;2845116;-67
2022/11/03 04:51:51;;;;;;;;;34.33;27.33;;;;;8.37;100.00;100357.69;6269056;20;2852669;-68
2022/11/03 04:54:23;;;;;;;;;31.00;27.00;;;;;8.29;100.00;100351.78;6297042;20;2843051;-66
2022/11/03 04:56:52;;;;;;;;;29.33;26.67;;;;;8.36;100.00;100351.47;6270257;20;2861842;-65
2022/11/03 04:59:21;;;;;;;;;41.67;36.00;;;;;8.33;100.00;100345.41;6302992;20;3607644;-66
2022/11/03 05:01:51;;;;;;;;;42.33;34.00;;;;;8.23;100.00;100344.91;6264537;20;3628399;-65
2022/11/03 05:04:20;;;;;;;;;36.00;33.33;;;;;8.20;100.00;100347.69;6304254;20;3614890;-66
2022/11/03 05:06:53;;;;;;;;;39.33;34.00;;;;;8.02;100.00;100341.28;6268636;20;3607533;-65
2022/11/03 05:09:31;;;;;;;;;51.33;39.00;;;;;8.01;100.00;100333.34;6266724;20;2871278;-66
2022/11/03 05:12:04;;;;;;;;;54.33;41.67;;;;;7.91;100.00;100338.19;6303096;20;2873265;-65
2022/11/03 05:14:33;;;;;;;;;44.33;34.00;;;;;7.98;100.00;100338.81;6297691;20;2878510;-67
2022/11/03 05:17:22;;;;;;;;;46.00;33.67;;;;;7.93;100.00;100340.81;6296690;20;2882719;-65
2022/11/03 05:20:00;;;;;;;;;40.00;31.00;;;;;8.05;100.00;100351.88;6299258;20;3622417;-66
2022/11/03 05:22:35;;;;;;;;;42.67;34.33;;;;;8.05;100.00;100351.00;6266285;20;3624244;-65
2022/11/03 05:25:44;;;;;;;;;41.67;34.67;;;;;8.04;100.00;100352.81;6267583;20;3623208;-65
2022/11/03 05:28:32;;;;;;;;;54.00;39.67;;;;;8.15;100.00;100349.69;6297819;20;3633252;-67
2022/11/03 05:31:25;;;;;;;;;45.00;35.33;;;;;8.22;100.00;100351.19;6296900;20;3610838;-65
2022/11/03 05:34:19;;;;;;;;;52.00;37.67;;;;;8.31;100.00;100366.84;6265178;20;2859787;-66
2022/11/03 05:36:48;;;;;;;;;52.00;43.00;;;;;8.43;100.00;100362.84;6296543;20;2854423;-66
2022/11/03 05:39:39;;;;;;;;;51.67;39.33;;;;;8.54;100.00;100371.28;6260899;20;2876401;-66
2022/11/03 05:42:39;;;;;;;;;37.33;33.00;;;;;8.51;100.00;100370.56;6296689;20;3603391;-67
2022/11/03 05:45:32;;;;;;;;;37.33;32.67;;;;;8.52;100.00;100367.78;6264772;20;2888910;-67
2022/11/03 05:48:12;;;;;;;;;36.33;32.33;;;;;8.43;100.00;100373.56;6299806;20;3617978;-67
2022/11/03 05:50:42;;;;;;;;;40.00;34.67;;;;;8.55;100.00;100373.00;6265426;20;3609834;-66
2022/11/03 05:53:34;;;;;;;;;43.00;37.00;;;;;8.74;100.00;100380.25;6297712;20;3579440;-65
2022/11/03 05:56:11;;;;;;;;;52.33;41.33;;;;;8.82;100.00;100375.47;6273366;20;3611835;-66
2022/11/03 05:58:43;;;;;;;;;43.33;34.33;;;;;8.91;100.00;100374.19;6263043;20;2876516;-65
2022/11/03 06:01:36;;;;;;;;;44.33;36.67;;;;;8.93;100.00;100373.19;6297228;20;3602471;-65
2022/11/03 06:04:36;;;;;;;;;50.00;37.00;;;;;8.91;100.00;100369.69;6262496;20;2861394;-66
2022/11/03 06:07:25;;;;;;;;;44.67;37.00;;;;;8.89;100.00;100381.41;6269158;20;3593174;-65
2022/11/03 06:09:55;;;;;;;;;46.67;37.00;;;;;8.84;100.00;100383.41;6264709;20;3611859;-66
2022/11/03 06:12:25;;;;;;;;;50.33;39.00;;;;;9.01;100.00;100389.78;6300822;20;2854468;-65
2022/11/03 06:14:54;;;;;;;;;49.50;38.00;;;;;9.17;100.00;100400.69;6294561;20;2858613;-67
2022/11/03 06:17:27;;;;;;;;;50.67;39.33;;;;;9.22;100.00;100408.53;6264198;20;3604656;-67
2022/11/03 06:20:00;;;;;;;;;54.67;43.33;;;;;9.24;100.00;100409.31;6264668;20;3604036;-67
2022/11/03 06:22:40;;;;;;;;;70.00;50.00;;;;;9.26;100.00;100403.91;6297666;20;3642071;-66
2022/11/03 06:25:35;;;;;;;;;54.00;42.33;;;;;9.50;100.00;100405.47;6297403;20;2859647;-66
2022/11/03 06:28:11;;;;;;;;;55.00;43.00;;;;;9.60;100.00;100408.59;6299043;20;3629510;-65
2022/11/03 06:30:41;;;;;;;;;56.00;43.00;;;;;9.66;100.00;100416.38;6300078;20;3619049;-65
2022/11/03 06:33:35;;;;;;;;;58.33;46.33;;;;;9.72;100.00;100415.25;6266456;20;3630326;-65
2022/11/03 06:36:21;;;;;;;;;46.50;35.50;;;;;9.69;100.00;100408.19;6290449;20;2500267;-65
2022/11/03 06:39:00;;;;;;;;;51.67;41.67;;;;;9.68;100.00;100414.50;6262585;20;2866116;-66
2022/11/03 06:41:32;;;;;;;;;52.50;40.00;;;;;9.66;100.00;100419.03;6298200;20;2865866;-65
2022/11/03 06:44:19;;;;;;;;;49.00;39.00;;;;;9.70;100.00;100420.66;6261449;20;2853426;-65
2022/11/03 06:46:48;;;;;;;;;44.50;38.00;;;;;9.75;100.00;100423.13;6265844;20;2845050;-66
2022/11/03 06:49:34;;;;;;;;;43.00;38.33;;;;;9.66;100.00;100421.72;6265966;20;2856612;-65
2022/11/03 06:52:39;;;;;;;;;47.00;38.00;;;;;9.77;100.00;100432.84;6293864;20;3587937;-65
2022/11/03 06:55:11;;;;;;;;;49.67;39.67;;;;;9.69;100.00;100432.34;6264940;20;2854503;-65
2022/11/03 06:57:48;;;;;;;;;50.33;38.67;;;;;9.69;100.00;100424.28;6298298;20;3606789;-65
2022/11/03 07:00:27;;;;;;;;;57.00;42.33;;;;;9.74;100.00;100435.69;6268909;20;3621216;-66
2022/11/03 07:03:25;;;;;;;;;59.00;43.00;;;;;9.60;100.00;100436.28;6263160;20;3639958;-65
2022/11/03 07:06:14;;;;;;;;;46.00;38.00;;;;;9.62;100.00;100429.03;6260845;20;2845093;-65
2022/11/03 07:08:54;;;;;;;;;52.67;42.67;;;;;9.65;100.00;100428.91;6264418;20;3615035;-65
2022/11/03 07:11:27;;;;;;;;;52.00;37.67;;;;;9.62;100.00;100426.38;6294531;20;2853443;-65
2022/11/03 07:14:14;;;;;;;;;69.67;49.00;;;;;9.64;100.00;100423.63;6295218;20;3641945;-65
2022/11/03 07:17:22;;;;;;;;;69.33;49.33;;;;;9.55;100.00;100418.66;6260285;20;3647209;-65
2022/11/03 07:19:51;;;;;;;;;59.67;46.33;;;;;9.68;100.00;100422.53;6263697;20;3612857;-65
2022/11/03 07:22:26;;;;;;;;;70.00;54.33;;;;;9.81;100.00;100429.06;6303079;20;3614991;-66
2022/11/03 07:25:02;;;;;;;;;69.67;52.00;;;;;9.83;100.00;100419.16;6301439;20;3642011;-66
2022/11/03 07:27:39;;;;;;;;;69.00;48.00;;;;;9.82;100.00;100425.47;6302318;20;3659662;-65
2022/11/03 07:30:33;;;;;;;;;72.67;50.67;;;;;9.76;100.00;100428.41;6266676;20;3648260;-65
2022/11/03 07:33:17;;;;;;;;;66.00;45.33;;;;;9.87;100.00;100431.47;6269450;20;3654451;-65
2022/11/03 07:35:49;;;;;;;;;65.00;47.00;;;;;9.84;100.00;100430.72;6267214;20;3648263;-66
2022/11/03 07:38:41;;;;;;;;;66.00;46.33;;;;;9.77;100.00;100427.47;6296440;20;3658606;-65
2022/11/03 07:41:20;;;;;;;;;61.33;46.33;;;;;9.76;100.00;100433.78;6255966;20;3637245;-65
2022/11/03 07:43:58;;;;;;;;;60.00;43.67;;;;;9.93;100.00;100434.81;6298432;20;3631551;-68
2022/11/03 07:46:28;;;;;;;;;64.67;46.00;;;;;9.82;100.00;100435.28;6267497;20;3645058;-66
2022/11/03 07:49:02;;;;;;;;;60.67;46.33;;;;;9.43;100.00;100426.34;6267611;20;3655475;-66
2022/11/03 07:51:36;;;;;;;;;64.25;49.50;;;;;9.69;100.00;100426.97;6304383;20;3628390;-66
2022/11/03 07:54:31;;;;;;;;;65.67;47.33;;;;;9.85;100.00;100422.63;6295183;20;3652576;-68
2022/11/03 07:57:30;;;;;;;;;67.67;48.00;;;;;9.92;100.00;100427.69;6266175;20;2895278;-66
2022/11/03 08:00:19;;;;;;;;;56.00;42.33;;;;;9.74;100.00;100421.38;6300331;20;3608681;-66
2022/11/03 08:02:59;;;;;;;;;69.33;49.67;;;;;9.85;100.00;100419.94;6300012;20;3631525;-65
2022/11/03 08:05:29;;;;;;;;;63.00;48.33;;;;;9.84;100.00;100420.88;6269535;20;3637121;-65
2022/11/03 08:07:58;;;;;;;;;71.00;51.00;;;;;9.95;100.00;100409.63;6264552;20;3639859;-65
2022/11/03 08:10:28;;;;;;;;;62.00;45.33;;;;;9.86;100.00;100408.25;6299409;20;3648249;-65
2022/11/03 08:12:58;;;;;;;;;69.33;47.67;;;;;9.93;100.00;100403.50;6267753;20;3649478;-66
2022/11/03 08:15:30;;;;;;;;;69.67;49.00;;;;;10.00;100.00;100401.38;6264030;20;3638894;-66
2022/11/03 08:18:00;;;;;;;;;68.00;43.00;;;;;9.86;100.00;100397.53;6298648;20;3637786;-67
2022/11/03 08:20:29;;;;;;;;;62.33;47.33;;;;;9.98;100.00;100403.25;6299315;20;3632683;-65
2022/11/03 08:22:59;;;;;;;;;63.00;46.00;;;;;10.02;100.00;100407.53;6303945;20;3637813;-66
2022/11/03 08:25:49;;;;;;;;;68.50;47.50;;;;;9.97;100.00;100401.53;6298224;20;4403413;-66
2022/11/03 08:28:18;;;;;;;;;65.67;48.33;;;;;10.07;100.00;100401.00;6297583;20;3647228;-67
2022/11/03 08:30:48;;;;;;;;;65.00;49.00;;;;;10.22;100.00;100399.41;6263812;20;3632547;-66
2022/11/03 08:33:19;;;;;;;;;63.67;47.67;;;;;10.21;100.00;100397.66;6300489;20;3640843;-66
2022/11/03 08:35:48;;;;;;;;;63.33;48.00;;;;;10.32;100.00;100398.06;6269988;20;3640872;-68
2022/11/03 08:38:18;;;;;;;;;69.00;49.00;;;;;10.38;100.00;100404.06;6266624;20;3650365;-68
2022/11/03 08:40:48;;;;;;;;;66.67;50.33;;;;;10.37;100.00;100402.31;6268403;20;3626330;-66
2022/11/03 08:43:24;;;;;;;;;58.00;47.33;;;;;10.41;100.00;100398.53;6301976;20;3616028;-65
2022/11/03 08:45:54;;;;;;;;;68.67;48.33;;;;;10.46;100.00;100404.56;6303181;20;3630494;-67
2022/11/03 08:48:26;;;;;;;;;63.00;46.67;;;;;10.69;100.00;100409.66;6266522;20;3648256;-68
2022/11/03 08:50:56;;;;;;;;;61.00;45.33;;;;;10.65;100.00;100405.38;6268113;20;3651363;-68
2022/11/03 08:53:26;;;;;;;;;60.00;45.00;;;;;10.60;100.00;100407.41;6264763;20;3639865;-69
2022/11/03 08:55:56;;;;;;;;;69.00;48.00;;;;;10.73;100.00;100400.47;6260197;20;3648249;-69
2022/11/03 08:58:26;;;;;;;;;56.67;43.33;;;;;10.66;100.00;100411.59;6265031;20;3619114;-69
2022/11/03 09:00:55;;;;;;;;;67.00;48.25;;;;;10.59;100.00;100413.75;6301096;20;3637913;-65
2022/11/03 09:03:25;;;;;;;;;67.50;49.00;;;;;10.54;100.00;100415.78;6305871;20;3644189;-68
2022/11/03 09:05:53;;;;;;;;;60.33;48.33;;;;;10.43;100.00;100413.63;6304697;20;3606587;-69
2022/11/03 09:08:23;;;;;;;;;56.00;43.33;;;;;10.49;100.00;100409.75;6270259;20;3630493;-68
2022/11/03 09:11:12;;;;;;;;;69.33;50.33;;;;;10.66;100.00;100404.41;6291178;20;3628428;-68
2022/11/03 09:13:42;;;;;;;;;60.67;44.00;;;;;10.66;100.00;100395.47;6264448;20;3633585;-65
2022/11/03 09:16:11;;;;;;;;;64.00;46.00;;;;;10.51;100.00;100397.16;6307301;20;3638866;-65
2022/11/03 09:18:41;;;;;;;;;54.67;44.00;;;;;10.70;100.00;100408.69;6299622;20;3606505;-69
2022/11/03 09:21:11;;;;;;;;;64.00;47.00;;;;;10.86;100.00;100413.28;6299426;20;3653390;-67
2022/11/03 09:23:40;;;;;;;;;63.00;45.33;;;;;10.86;100.00;100408.78;6265287;20;3652323;-67
2022/11/03 09:26:10;;;;;;;;;59.67;46.00;;;;;10.94;100.00;100403.88;6264051;20;3622130;-67
2022/11/03 09:28:39;;;;;;;;;61.33;44.67;;;;;10.63;100.00;100399.19;6300569;20;3636218;-66
2022/11/03 09:31:09;;;;;;;;;57.67;43.00;;;;;10.71;100.00;100393.44;6266710;20;3630611;-67
2022/11/03 09:33:38;;;;;;;;;64.75;45.00;;;;;10.92;100.00;100388.78;6300530;20;4398639;-67
2022/11/03 09:36:08;;;;;;;;;58.00;44.33;;;;;10.86;100.00;100383.72;6295856;20;3632543;-65
2022/11/03 09:38:38;;;;;;;;;58.00;44.00;;;;;10.96;100.00;100385.00;6295246;20;3619016;-66
2022/11/03 09:41:07;;;;;;;;;58.67;44.33;;;;;11.01;100.00;100384.78;6296716;20;3621827;-66
2022/11/03 09:43:58;;;;;;;;;59.75;44.50;;;;;10.85;100.00;100377.50;6300649;20;3637962;-65
2022/11/03 09:46:29;;;;;;;;;57.67;44.00;;;;;11.08;100.00;100370.91;6295854;20;3639992;-66
2022/11/03 09:48:59;;;;;;;;;59.33;44.67;;;;;10.97;100.00;100373.28;6266380;20;3631520;-69
2022/11/03 09:51:29;;;;;;;;;63.67;44.33;;;;;11.12;100.00;100377.88;6263728;20;3648222;-68
2022/11/03 09:54:03;;;;;;;;;69.00;53.33;;;;;11.28;100.00;100379.75;6263403;20;3625254;-69
2022/11/03 09:56:36;;;;;;;;;55.00;42.00;;;;;11.17;100.00;100362.38;6292967;20;3623162;-66
2022/11/03 09:59:22;;;;;;;;;81.33;70.33;;;;;11.23;100.00;100368.38;6295070;20;3658755;-69
2022/11/03 10:01:53;;;;;;;;;61.75;45.75;;;;;11.22;100.00;100367.50;6266651;20;3627448;-69
2022/11/03 10:04:28;;;;;;;;;62.67;46.00;;;;;11.21;100.00;100363.06;6297909;20;3645191;-67
2022/11/03 10:06:58;;;;;;;;;59.67;44.00;;;;;11.32;100.00;100367.88;6262827;20;3648297;-66
2022/11/03 10:09:29;;;;;;;;;62.00;43.67;;;;;11.51;100.00;100365.94;6267669;20;3628400;-66
2022/11/03 10:11:58;;;;;;;;;64.00;48.25;;;;;11.42;100.00;100363.72;6302555;20;4404400;-67
2022/11/03 10:14:28;;;;;;;;;59.00;46.00;;;;;11.41;100.00;100353.94;6295377;20;3624318;-67
2022/11/03 10:16:59;;;;;;;;;61.50;46.25;;;;;11.37;100.00;100357.72;6304748;20;4393049;-67
2022/11/03 10:19:29;;;;;;;;;64.50;46.25;;;;;11.47;100.00;100358.97;6303490;20;4387752;-66
2022/11/03 10:21:59;;;;;;;;;58.67;46.67;;;;;11.44;100.00;100343.00;6297914;20;3629528;-67
2022/11/03 10:24:29;;;;;;;;;58.33;44.33;;;;;11.41;100.00;100340.50;6266042;20;3635702;-67
2022/11/03 10:26:58;;;;;;;;;62.75;47.50;;;;;11.47;100.00;100337.47;6301630;20;3625320;-67
2022/11/03 10:29:28;;;;;;;;;63.00;46.00;;;;;11.41;100.00;100332.44;6291521;20;3648285;-67
2022/11/03 10:32:02;;;;;;;;;62.67;45.67;;;;;11.50;100.00;100329.22;6263679;20;3644106;-68
2022/11/03 10:34:40;;;;;;;;;65.00;47.00;;;;;11.70;100.00;100329.94;6269113;20;3649346;-66
2022/11/03 10:37:21;;;;;;;;;58.33;43.00;;;;;11.69;100.00;100320.13;6265430;20;3624253;-66
2022/11/03 10:39:56;;;;;;;;;58.67;45.33;;;;;11.42;100.00;100318.88;6294380;20;3622213;-67
2022/11/03 10:42:29;;;;;;;;;60.67;47.00;;;;;11.60;100.00;100313.44;6301131;20;3638915;-67
2022/11/03 10:45:20;;;;;;;;;57.33;43.67;;;;;11.25;100.00;100310.03;6267667;20;3636777;-67
2022/11/03 10:48:04;;;;;;;;;72.25;48.25;;;;;11.26;100.00;100306.38;6300736;20;4386650;-66
2022/11/03 10:50:34;;;;;;;;;67.67;48.33;;;;;11.21;100.00;100306.63;6299279;20;3626400;-67
2022/11/03 10:53:04;;;;;;;;;57.33;42.00;;;;;11.19;100.00;100298.66;6261924;20;3641050;-67
2022/11/03 10:55:34;;;;;;;;;61.00;44.50;;;;;11.13;100.00;100296.28;6298687;20;3653590;-67
2022/11/03 10:58:05;;;;;;;;;62.50;45.75;;;;;11.01;100.00;100294.28;6298955;20;4394072;-67
2022/11/03 11:00:34;;;;;;;;;64.00;45.00;;;;;11.17;100.00;100297.88;6299418;20;2758679;-67
2022/11/03 11:03:06;;;;;;;;;61.67;44.00;;;;;11.24;100.00;100289.44;6267897;20;3647108;-68
2022/11/03 11:05:46;;;;;;;;;68.67;52.00;;;;;11.26;100.00;100282.19;6267605;20;3638860;-68
2022/11/03 11:08:22;;;;;;;;;66.67;49.00;;;;;11.26;100.00;100287.56;6266329;20;3639983;-69
2022/11/03 11:10:53;;;;;;;;;60.33;45.67;;;;;11.23;100.00;100275.16;6268219;20;3644787;-68
2022/11/03 11:13:26;;;;;;;;;61.00;43.00;;;;;11.32;100.00;100268.38;6270167;20;3520518;-68
2022/11/03 11:16:01;;;;;;;;;63.67;45.67;;;;;11.25;100.00;100270.56;6302661;20;3651341;-68
2022/11/03 11:18:31;;;;;;;;;58.67;44.33;;;;;11.28;100.00;100267.72;6268648;20;3638829;-68
2022/11/03 11:21:23;;;;;;;;;63.33;49.00;;;;;11.04;100.00;100267.22;6268331;20;3641913;-68
2022/11/03 11:23:53;;;;;;;;;69.00;46.33;;;;;11.08;100.00;100259.84;6268259;20;3656485;-68
2022/11/03 11:26:24;;;;;;;;;63.00;49.00;;;;;11.19;100.00;100263.72;6273929;20;3619016;-68
2022/11/03 11:29:09;;;;;;;;;66.50;50.75;;;;;11.33;100.00;100252.19;6273711;20;3634642;-68
2022/11/03 11:31:41;;;;;;;;;63.67;48.00;;;;;11.43;100.00;100252.56;6304253;20;3636901;-68
2022/11/03 11:34:16;;;;;;;;;73.00;54.50;;;;;11.57;100.00;100247.25;6306534;20;3638902;-68
2022/11/03 11:36:52;;;;;;;;;83.50;66.50;;;;;11.57;100.00;100251.78;6301586;20;1934810;-68
2022/11/03 11:39:29;;;;;;;;;79.75;66.00;;;;;11.54;100.00;100243.88;6268152;20;4409682;-68
2022/11/03 11:42:16;;;;;;;;;73.50;55.25;;;;;11.11;100.00;100236.41;6307050;20;3638804;-68
2022/11/03 11:44:44;;;;;;;;;81.00;67.00;;;;;11.33;100.00;100227.13;6299787;20;1937948;-69
2022/11/03 11:47:28;;;;;;;;;50.67;35.67;;;;;10.97;100.00;100212.94;6276568;20;3627533;-71
2022/11/03 11:50:09;;;;;;;;;58.75;45.50;;;;;11.04;100.00;100215.31;6276367;20;3638886;-68